Time;durP1;ratioP1;P1;durP2;ratioP2;P2;SDS_P1;SDS_P2;PMS_P1;PMS_P2;Temp;Humidity;BMP_temperature;BMP_pressure;BME280_temperature;BME280_humidity;BME280_pressure;Samples;Min_cycle;Max_cycle;Signal;HPM_P1;HPM_P2
2022/01/28 00:04:48;;;;;;;7.80;0.60;;;;;;;3.73;94.75;101209.25;5071290;28;20159;-73
2022/01/28 00:07:13;;;;;;;11.07;6.07;;;;;;;3.76;94.88;101214.19;5069792;28;20179;-72
2022/01/28 00:09:39;;;;;;;7.90;0.77;;;;;;;3.72;94.94;101198.69;5069836;28;20178;-75
2022/01/28 00:12:07;;;;;;;1.03;1.03;;;;;;;3.75;94.12;101227.94;5071087;28;20850;-73
2022/01/28 00:14:54;;;;;;;6.33;1.30;;;;;;;3.72;94.42;101223.03;5070862;28;20472;-74
2022/01/28 00:20:59;;;;;;;7.83;0.97;;;;;;;3.65;97.27;101238.59;5070924;28;20184;-74
2022/01/28 00:39:19;;;;;;;6.73;0.43;;;;;;;3.47;97.00;101243.19;5070618;28;20209;-74
2022/01/28 00:41:45;;;;;;;0.47;0.47;;;;;;;3.50;96.89;101244.56;5070500;28;20182;-74
2022/01/28 00:44:10;;;;;;;9.53;0.43;;;;;;;3.50;97.26;101249.97;5070610;28;20175;-74
2022/01/28 00:46:35;;;;;;;4.30;1.03;;;;;;;3.51;97.03;101254.31;5070336;28;20174;-73
2022/01/28 00:49:04;;;;;;;0.27;0.27;;;;;;;3.53;96.72;101261.09;5070619;28;20178;-73
2022/01/28 00:51:29;;;;;;;2.03;1.73;;;;;;;3.59;96.25;101265.50;5070614;28;20175;-74
2022/01/28 00:53:54;;;;;;;2.57;1.27;;;;;;;3.61;96.02;101272.53;5069218;28;20631;-74
2022/01/28 00:56:20;;;;;;;1.50;0.60;;;;;;;3.59;96.35;101270.91;5068821;28;20177;-74
2022/01/28 00:58:45;;;;;;;0.50;0.40;;;;;;;3.63;96.79;101292.06;5069106;28;20740;-73
2022/01/28 01:01:10;;;;;;;10.10;0.83;;;;;;;3.59;96.91;101275.50;5069248;28;20171;-74
2022/01/28 01:03:36;;;;;;;6.77;2.17;;;;;;;3.59;97.20;101286.31;5070366;28;20206;-73
2022/01/28 01:06:01;;;;;;;1.53;1.40;;;;;;;3.65;96.68;101289.94;5070290;28;20175;-74
2022/01/28 01:08:26;;;;;;;0.27;0.27;;;;;;;3.68;96.27;101284.84;5070373;28;20170;-74
2022/01/28 01:10:54;;;;;;;1.83;0.90;;;;;;;3.71;95.94;101297.03;5069013;28;20206;-74
2022/01/28 01:13:19;;;;;;;4.07;0.63;;;;;;;3.81;94.42;101289.94;5070271;28;20253;-75
2022/01/28 01:15:48;;;;;;;3.77;1.87;;;;;;;3.88;93.17;101295.97;5070179;28;20703;-74
2022/01/28 01:18:21;;;;;;;6.30;0.63;;;;;;;3.91;93.29;101302.00;5069954;28;20233;-74
2022/01/28 01:26:12;;;;;;;13.07;4.40;;;;;;;3.81;95.56;101310.75;5057959;28;20187;-76
2022/01/28 01:28:40;;;;;;;7.00;1.33;;;;;;;3.82;95.88;101312.38;5072621;28;20171;-75
2022/01/28 01:31:11;;;;;;;1.90;1.03;;;;;;;3.79;96.12;101321.78;5073941;28;20178;-73
2022/01/28 01:33:42;;;;;;;2.73;1.63;;;;;;;3.77;96.30;101350.94;5074202;28;20409;-74
2022/01/28 01:36:08;;;;;;;5.07;2.67;;;;;;;3.82;95.56;101325.88;5073838;28;20250;-74
2022/01/28 01:38:36;;;;;;;1.30;0.57;;;;;;;3.81;95.14;101332.34;5073778;28;20347;-74
2022/01/28 01:41:04;;;;;;;6.70;1.53;;;;;;;3.74;95.00;101323.56;5072571;28;20175;-75
2022/01/28 01:53:51;;;;;;;1.97;1.77;;;;;;;3.54;96.70;101345.66;5073567;28;20189;-73
2022/01/28 01:56:18;;;;;;;1.17;0.97;;;;;;;3.53;96.98;101350.25;5072023;28;20179;-74
2022/01/28 01:58:43;;;;;;;4.37;0.70;;;;;;;3.48;97.56;101346.63;5072069;28;20662;-74
2022/01/28 02:01:09;;;;;;;1.13;1.03;;;;;;;3.45;97.87;101339.00;5072146;28;20270;-74
2022/01/28 02:03:34;;;;;;;2.10;0.63;;;;;;;3.45;97.95;101341.69;5072184;28;20630;-74
2022/01/28 02:06:00;;;;;;;0.23;0.03;;;;;;;3.45;98.25;101349.81;5073329;28;20166;-74
2022/01/28 02:08:27;;;;;;;21.97;2.53;;;;;;;3.43;98.29;101344.66;5073432;28;20193;-73
2022/01/28 02:10:58;;;;;;;5.13;2.20;;;;;;;3.45;98.13;101339.00;5073203;28;20178;-73
2022/01/28 02:13:25;;;;;;;9.33;1.13;;;;;;;3.46;97.88;101344.16;5072259;28;20216;-74
2022/01/28 02:15:51;;;;;;;1.13;0.63;;;;;;;3.46;97.50;101356.84;5072974;28;20640;-74
2022/01/28 02:18:16;;;;;;;0.53;0.53;;;;;;;3.49;97.48;101349.09;5071669;28;20288;-74
2022/01/28 02:20:47;;;;;;;5.10;1.57;;;;;;;3.54;97.15;101369.97;5072973;28;20258;-74
2022/01/28 02:23:12;;;;;;;6.60;2.10;;;;;;;3.54;97.12;101376.19;5073210;28;20249;-74
2022/01/28 02:25:38;;;;;;;1.30;1.17;;;;;;;3.62;96.89;101384.97;5072890;28;20179;-73
2022/01/28 02:28:07;;;;;;;9.67;1.53;;;;;;;3.65;95.94;101371.81;5072989;28;20170;-73
2022/01/28 02:30:32;;;;;;;2.37;1.60;;;;;;;3.71;94.66;101387.03;5072848;28;20170;-74
2022/01/28 02:33:09;;;;;;;0.63;0.63;;;;;;;3.74;94.24;101388.44;5072883;28;20178;-74
2022/01/28 02:35:34;;;;;;;7.30;1.43;;;;;;;3.72;94.24;101385.16;5072663;28;20177;-74
2022/01/28 02:38:00;;;;;;;0.43;0.43;;;;;;;3.73;94.03;101394.91;5068201;28;20211;-74
2022/01/28 02:40:25;;;;;;;4.90;2.20;;;;;;;3.72;94.00;101398.66;5078741;28;20217;-74
2022/01/28 02:42:58;;;;;;;3.70;0.33;;;;;;;3.75;93.79;101392.78;5079559;28;20178;-76
2022/01/28 02:45:31;;;;;;;0.23;0.23;;;;;;;3.72;93.96;101393.25;5076060;28;20270;-75
2022/01/28 02:48:01;;;;;;;0.73;0.73;;;;;;;3.72;93.92;101404.06;5072523;28;20174;-74
2022/01/28 02:50:30;;;;;;;2.23;1.47;;;;;;;3.64;95.03;101397.19;5072619;28;20175;-73
2022/01/28 02:53:08;;;;;;;8.40;0.53;;;;;;;3.56;96.22;101395.69;5072619;28;20619;-74
2022/01/28 02:55:40;;;;;;;2.90;0.40;;;;;;;3.52;96.93;101404.53;5072373;28;20316;-75
2022/01/28 02:58:22;;;;;;;9.00;0.67;;;;;;;3.52;97.45;101424.25;5070935;28;20233;-73
2022/01/28 03:00:48;;;;;;;9.50;0.30;;;;;;;3.53;97.82;101412.38;5071208;28;20171;-74
2022/01/28 03:03:18;;;;;;;0.73;0.60;;;;;;;3.52;98.03;101410.75;5072317;28;20206;-75
2022/01/28 03:05:44;;;;;;;0.90;0.90;;;;;;;3.52;98.36;101418.03;5070815;28;20178;-74
2022/01/28 03:08:10;;;;;;;0.37;0.37;;;;;;;3.50;98.44;101423.69;5070735;28;20182;-74
2022/01/28 03:15:33;;;;;;;2.20;0.73;;;;;;;3.55;97.93;101409.44;5072360;28;20166;-74
2022/01/28 03:18:15;;;;;;;3.93;0.30;;;;;;;3.57;97.40;101418.94;5070549;28;20198;-76
2022/01/28 03:20:55;;;;;;;2.07;1.90;;;;;;;3.58;96.96;101412.47;5070634;28;20186;-74
2022/01/28 03:23:20;;;;;;;3.80;1.07;;;;;;;3.57;96.90;101428.91;5071929;28;20218;-74
2022/01/28 03:25:47;;;;;;;4.63;0.83;;;;;;;3.54;96.74;101430.22;5070546;28;20213;-74
2022/01/28 03:28:14;;;;;;;3.90;1.40;;;;;;;3.55;96.67;101431.88;5070407;28;20223;-74
2022/01/28 03:30:40;;;;;;;7.00;1.70;;;;;;;3.52;97.08;101418.03;5071630;28;20536;-74
2022/01/28 03:33:05;;;;;;;0.23;0.23;;;;;;;3.51;96.71;101443.41;5070352;28;20186;-74
2022/01/28 03:35:33;;;;;;;7.43;2.00;;;;;;;3.47;96.89;101447.63;5071493;28;20185;-74
2022/01/28 03:38:00;;;;;;;0.40;0.40;;;;;;;3.46;96.87;101454.91;5070248;28;20642;-74
2022/01/28 03:40:27;;;;;;;1.60;0.40;;;;;;;3.42;96.99;101442.94;5070621;28;20220;-74
2022/01/28 03:42:52;;;;;;;0.63;0.63;;;;;;;3.40;97.25;101452.34;5071479;28;20214;-74
2022/01/28 03:45:17;;;;;;;3.60;0.67;;;;;;;3.41;97.29;101462.91;5071332;28;20206;-74
2022/01/28 03:47:43;;;;;;;0.20;0.07;;;;;;;3.41;97.24;101462.09;5070083;28;20185;-74
2022/01/28 03:50:08;;;;;;;8.63;1.63;;;;;;;3.39;97.32;101470.44;5069603;28;20685;-75
2022/01/28 03:52:34;;;;;;;0.10;0.10;;;;;;;3.38;96.95;101467.97;5070104;28;20791;-74
2022/01/28 03:54:59;;;;;;;0.10;0.10;;;;;;;3.37;96.89;101471.75;5071091;28;20546;-74
2022/01/28 03:57:25;;;;;;;1.27;1.17;;;;;;;3.32;97.25;101468.91;5069587;28;20229;-73
2022/01/28 03:59:50;;;;;;;0.20;0.20;;;;;;;3.28;97.15;101463.19;5069926;28;20178;-74
2022/01/28 04:02:20;;;;;;;2.47;0.30;;;;;;;3.25;96.92;101480.69;5071025;28;20179;-74
2022/01/28 04:13:01;;;;;;;0.03;0.03;;;;;;;3.15;96.13;101491.25;5070754;28;20470;-74
2022/01/28 04:18:10;;;;;;;0.73;0.73;;;;;;;3.08;97.76;101490.56;5070919;28;20214;-73
2022/01/28 04:20:36;;;;;;;2.20;2.10;;;;;;;3.06;98.20;101506.19;5069448;28;20178;-74
2022/01/28 04:23:01;;;;;;;0.27;0.27;;;;;;;3.11;97.63;101494.66;5070469;28;20159;-74
2022/01/28 04:25:26;;;;;;;3.60;2.00;;;;;;;3.10;97.30;101493.03;5069239;28;20171;-74
2022/01/28 04:27:52;;;;;;;0.20;0.20;;;;;;;3.10;96.70;101495.72;5069559;28;20221;-74
2022/01/28 04:30:17;;;;;;;2.00;0.87;;;;;;;3.11;95.99;101502.75;5069282;28;20182;-74
2022/01/28 04:32:42;;;;;;;0.97;0.97;;;;;;;3.12;95.19;101505.22;5069362;28;20571;-74
2022/01/28 04:35:08;;;;;;;3.30;0.80;;;;;;;3.16;94.58;101508.28;5070603;28;20672;-74
2022/01/28 04:40:12;;;;;;;1.03;0.20;;;;;;;3.16;93.97;101506.38;5070946;28;20169;-74
2022/01/28 04:45:13;;;;;;;1.17;0.50;;;;;;;3.17;93.94;101523.41;5070550;28;20261;-74
2022/01/28 04:50:28;;;;;;;6.03;0.67;;;;;;;3.16;94.88;101524.47;5070638;28;20174;-74
2022/01/28 04:55:49;;;;;;;3.93;1.50;;;;;;;3.15;95.03;101530.94;5070608;28;20905;-73
2022/01/28 05:09:12;;;;;;;4.53;0.83;;;;;;;3.26;93.53;101547.13;5074423;28;20428;-74
2022/01/28 05:11:41;;;;;;;0.63;0.63;;;;;;;3.28;93.25;101565.78;5073741;28;20805;-74
2022/01/28 05:27:23;;;;;;;1.10;0.73;;;;;;;3.47;90.72;101588.09;5075543;28;20167;-73
2022/01/28 05:29:48;;;;;;;3.47;3.17;;;;;;;3.51;90.21;101579.31;5073560;28;20227;-74
2022/01/28 05:32:14;;;;;;;1.70;0.57;;;;;;;3.58;88.93;101593.50;5074201;28;20530;-74
2022/01/28 05:34:40;;;;;;;4.83;0.27;;;;;;;3.58;88.83;101588.09;5074047;28;20185;-74
2022/01/28 05:37:07;;;;;;;8.67;0.70;;;;;;;3.61;88.65;101580.56;5072846;28;20186;-73
2022/01/28 05:39:33;;;;;;;0.27;0.27;;;;;;;3.62;88.35;101572.25;5072480;28;20210;-74
2022/01/28 05:41:58;;;;;;;2.93;0.30;;;;;;;3.66;88.23;101586.09;5073996;28;20186;-74
2022/01/28 05:44:24;;;;;;;5.73;1.20;;;;;;;3.68;87.92;101603.72;5073890;28;20170;-74
2022/01/28 05:46:51;;;;;;;1.73;1.13;;;;;;;3.70;87.60;101600.78;5073748;28;20220;-75
2022/01/28 05:49:17;;;;;;;0.50;0.47;;;;;;;3.67;88.16;101612.06;5073769;28;20622;-74
2022/01/28 05:51:43;;;;;;;5.63;1.60;;;;;;;3.68;87.91;101613.69;5073718;28;20198;-73
2022/01/28 05:54:09;;;;;;;5.23;1.23;;;;;;;3.70;87.30;101608.88;5073585;28;20205;-74
2022/01/28 05:56:35;;;;;;;4.93;1.07;;;;;;;3.73;86.78;101624.63;5073496;28;20175;-74
2022/01/28 05:59:00;;;;;;;0.83;0.83;;;;;;;3.71;87.35;101615.94;5073497;28;20198;-74
2022/01/28 06:01:26;;;;;;;0.60;0.60;;;;;;;3.71;87.18;101613.22;5072190;28;20177;-75
2022/01/28 06:03:51;;;;;;;2.53;0.27;;;;;;;3.69;87.60;101618.88;5073522;28;20182;-75
2022/01/28 06:06:21;;;;;;;2.40;0.63;;;;;;;3.71;87.02;101637.53;5073334;28;20170;-74
2022/01/28 06:08:52;;;;;;;0.40;0.40;;;;;;;3.66;87.89;101650.94;5073315;28;20194;-74
2022/01/28 06:11:18;;;;;;;0.67;0.43;;;;;;;3.63;88.46;101665.75;5071935;28;20175;-75
2022/01/28 06:13:44;;;;;;;1.43;0.63;;;;;;;3.58;88.77;101673.72;5071924;28;20270;-74
2022/01/28 06:16:11;;;;;;;2.10;0.90;;;;;;;3.54;89.90;101684.19;5071752;28;20647;-74
2022/01/28 06:18:36;;;;;;;0.23;0.10;;;;;;;3.54;90.98;101669.88;5071885;28;20202;-74
2022/01/28 06:21:03;;;;;;;0.40;0.20;;;;;;;3.49;91.78;101691.38;5071523;28;20423;-73
2022/01/28 06:23:28;;;;;;;3.77;1.90;;;;;;;3.47;92.05;101688.91;5073044;28;20275;-74
2022/01/28 06:25:54;;;;;;;12.63;1.90;;;;;;;3.43;92.72;101690.41;5072865;28;20536;-74
2022/01/28 06:28:19;;;;;;;1.33;1.23;;;;;;;3.38;92.69;101684.88;5072982;28;20637;-74
2022/01/28 06:30:45;;;;;;;1.33;0.47;;;;;;;3.38;92.38;101686.75;5071758;28;20255;-74
2022/01/28 06:33:11;;;;;;;2.00;0.80;;;;;;;3.37;93.21;101693.22;5073063;28;20650;-73
2022/01/28 06:35:36;;;;;;;8.63;1.87;;;;;;;3.34;94.60;101688.28;5072758;28;20269;-74
2022/01/28 06:38:02;;;;;;;2.27;0.50;;;;;;;3.29;94.91;101683.56;5072811;28;20297;-73
2022/01/28 06:40:27;;;;;;;0.47;0.40;;;;;;;3.28;95.17;101708.94;5071582;28;20182;-74
2022/01/28 06:42:52;;;;;;;0.73;0.20;;;;;;;3.28;94.93;101723.25;5072892;28;20175;-74
2022/01/28 06:45:18;;;;;;;8.77;1.30;;;;;;;3.27;94.54;101724.31;5072631;28;20233;-75
2022/01/28 06:47:43;;;;;;;1.20;1.07;;;;;;;3.27;94.32;101710.00;5071321;28;20190;-74
2022/01/28 06:50:10;;;;;;;1.03;0.70;;;;;;;3.27;94.39;101718.09;5071237;28;20244;-74
2022/01/28 06:52:37;;;;;;;0.93;0.87;;;;;;;3.26;94.04;101727.25;5072571;28;20194;-74
2022/01/28 06:55:04;;;;;;;0.40;0.40;;;;;;;3.23;94.01;101730.41;5072355;28;20166;-73
2022/01/28 06:57:29;;;;;;;2.50;0.60;;;;;;;3.22;94.06;101751.19;5071073;28;20198;-74
2022/01/28 06:59:56;;;;;;;0.53;0.53;;;;;;;3.21;94.70;101740.63;5071166;28;20179;-73
2022/01/28 07:02:21;;;;;;;0.20;0.20;;;;;;;3.17;94.71;101734.84;5071052;28;20185;-74
2022/01/28 07:04:46;;;;;;;3.50;1.57;;;;;;;3.16;95.06;101744.00;5072268;28;20175;-74
2022/01/28 07:07:12;;;;;;;0.10;0.10;;;;;;;3.17;94.82;101750.22;5072316;28;20171;-74
2022/01/28 07:09:37;;;;;;;4.43;2.27;;;;;;;3.17;94.47;101755.63;5071004;28;20183;-74
2022/01/28 07:12:03;;;;;;;3.80;1.00;;;;;;;3.16;94.38;101760.19;5070945;28;20179;-73
2022/01/28 07:14:28;;;;;;;2.00;0.57;;;;;;;3.15;94.69;101768.53;5072216;28;20174;-74
2022/01/28 07:16:54;;;;;;;3.70;1.03;;;;;;;3.12;94.89;101769.00;5071942;28;20561;-74
2022/01/28 07:19:19;;;;;;;0.40;0.40;;;;;;;3.13;94.51;101765.25;5071891;28;20658;-73
2022/01/28 07:21:45;;;;;;;3.37;0.87;;;;;;;3.14;94.12;101775.81;5070481;28;20186;-74
2022/01/28 07:24:10;;;;;;;3.70;0.97;;;;;;;3.13;94.24;101776.88;5069858;28;20182;-74
2022/01/28 07:26:35;;;;;;;2.80;0.70;;;;;;;3.14;94.42;101780.38;5070513;28;20186;-74
2022/01/28 07:29:01;;;;;;;0.37;0.37;;;;;;;3.11;94.88;101775.44;5070592;28;20191;-74
2022/01/28 07:31:26;;;;;;;0.33;0.33;;;;;;;3.12;94.20;101777.09;5070439;28;20286;-74
2022/01/28 07:33:52;;;;;;;0.50;0.37;;;;;;;3.12;94.42;101783.31;5070512;28;20244;-74
2022/01/28 07:36:17;;;;;;;3.30;0.10;;;;;;;3.14;93.99;101793.88;5070297;28;20240;-74
2022/01/28 07:38:42;;;;;;;4.20;0.73;;;;;;;3.16;94.03;101798.00;5070160;28;20206;-75
2022/01/28 07:41:08;;;;;;;7.20;1.97;;;;;;;3.18;93.81;101805.88;5070362;28;20190;-74
2022/01/28 07:43:37;;;;;;;2.03;1.03;;;;;;;3.16;93.61;101813.38;5070229;28;20174;-74
2022/01/28 07:46:03;;;;;;;1.57;0.93;;;;;;;3.17;93.09;101805.06;5069996;28;20182;-75
2022/01/28 07:48:28;;;;;;;0.53;0.53;;;;;;;3.19;92.91;101807.56;5071358;28;20182;-73
2022/01/28 07:50:53;;;;;;;2.77;2.23;;;;;;;3.17;93.25;101810.44;5070049;28;20185;-74
2022/01/28 07:53:19;;;;;;;1.80;0.50;;;;;;;3.19;93.09;101807.56;5069951;28;20198;-75
2022/01/28 07:55:44;;;;;;;3.93;1.77;;;;;;;3.20;93.14;101806.50;5071107;28;20182;-73
2022/01/28 07:58:10;;;;;;;18.03;1.63;;;;;;;3.24;92.17;101811.19;5069818;28;20670;-74
2022/01/28 08:00:35;;;;;;;2.33;0.70;;;;;;;3.28;91.26;101825.06;5069868;28;20183;-73
2022/01/28 08:03:00;;;;;;;1.97;0.47;;;;;;;3.31;90.79;101818.38;5067762;28;20394;-74
2022/01/28 08:05:26;;;;;;;1.70;1.60;;;;;;;3.33;90.54;101832.47;5076885;28;20197;-76
2022/01/28 08:07:52;;;;;;;6.40;1.23;;;;;;;3.36;90.47;101834.72;5075016;28;20174;-75
2022/01/28 08:10:17;;;;;;;1.43;0.23;;;;;;;3.39;90.07;101839.66;5079085;28;20175;-74
2022/01/28 08:12:47;;;;;;;1.40;0.60;;;;;;;3.42;89.85;101839.22;5069895;28;20547;-75
2022/01/28 08:15:14;;;;;;;5.67;2.00;;;;;;;3.43;89.22;101846.25;5070769;28;20219;-74
2022/01/28 08:17:39;;;;;;;0.77;0.20;;;;;;;3.45;88.59;101847.66;5069756;28;20611;-74
2022/01/28 08:20:05;;;;;;;4.23;1.83;;;;;;;3.46;88.25;101857.41;5069680;28;20255;-73
2022/01/28 08:22:31;;;;;;;1.20;1.03;;;;;;;3.50;87.88;101855.09;5070677;28;20189;-74
2022/01/28 08:24:56;;;;;;;6.17;1.83;;;;;;;3.49;88.07;101854.28;5069409;28;20191;-74
2022/01/28 08:27:21;;;;;;;5.80;2.40;;;;;;;3.50;87.97;101849.72;5070926;28;20199;-74
2022/01/28 08:29:47;;;;;;;4.20;2.17;;;;;;;3.49;87.60;101856.16;5071040;28;20674;-74
2022/01/28 08:32:12;;;;;;;5.93;0.73;;;;;;;3.49;87.28;101862.38;5070867;28;20668;-74
2022/01/28 08:34:38;;;;;;;9.10;0.87;;;;;;;3.47;86.98;101864.50;5070712;28;20603;-74
2022/01/28 08:37:04;;;;;;;1.73;1.50;;;;;;;3.46;87.80;101881.72;5068608;28;20695;-75
2022/01/28 08:39:35;;;;;;;2.03;0.90;;;;;;;3.50;87.89;101877.53;5070540;28;20206;-77
2022/01/28 08:42:00;;;;;;;17.97;0.90;;;;;;;3.56;87.13;101884.72;5070749;28;20516;-74
2022/01/28 08:44:27;;;;;;;4.23;1.83;;;;;;;3.61;86.83;101877.78;5070749;28;20182;-74
2022/01/28 08:46:52;;;;;;;9.90;1.13;;;;;;;3.65;86.65;101893.34;5070479;28;20189;-74
2022/01/28 08:49:17;;;;;;;14.13;1.03;;;;;;;3.69;86.14;101897.22;5069354;28;20210;-72
2022/01/28 08:51:44;;;;;;;0.67;0.60;;;;;;;3.72;85.97;101915.69;5070602;28;20179;-72
2022/01/28 08:54:09;;;;;;;8.80;0.60;;;;;;;3.78;85.83;101911.25;5070521;28;20170;-74
2022/01/28 08:56:34;;;;;;;12.03;0.47;;;;;;;3.81;85.03;101911.59;5069225;28;20469;-74
2022/01/28 08:59:00;;;;;;;3.10;0.73;;;;;;;3.84;85.22;101902.22;5070476;28;20293;-72
2022/01/28 09:01:25;;;;;;;0.83;0.60;;;;;;;3.88;84.71;101912.31;5069190;28;20196;-73
2022/01/28 09:03:52;;;;;;;1.87;0.60;;;;;;;3.93;84.62;101913.53;5069157;28;20171;-72
2022/01/28 09:06:17;;;;;;;1.00;0.47;;;;;;;3.95;83.76;101908.72;5070432;28;20166;-73
2022/01/28 09:08:44;;;;;;;8.77;1.80;;;;;;;3.97;83.56;101910.13;5070498;28;20241;-73
2022/01/28 09:13:47;;;;;;;13.70;1.40;;;;;;;4.06;83.00;101921.44;5070521;28;20201;-72
2022/01/28 09:16:13;;;;;;;10.63;2.33;;;;;;;4.09;82.38;101929.09;5070629;28;20623;-72
2022/01/28 09:18:38;;;;;;;0.70;0.57;;;;;;;4.11;82.09;101930.50;5069023;28;20556;-73
2022/01/28 09:21:04;;;;;;;3.30;1.77;;;;;;;4.13;81.67;101927.56;5070003;28;20175;-73
2022/01/28 09:23:29;;;;;;;2.20;0.67;;;;;;;4.16;82.38;101936.03;5068925;28;20268;-72
2022/01/28 09:25:54;;;;;;;1.33;0.93;;;;;;;4.15;82.76;101947.91;5070096;28;20193;-73
2022/01/28 09:28:20;;;;;;;2.60;2.40;;;;;;;4.18;82.30;101965.53;5065634;28;20194;-73
2022/01/28 09:30:45;;;;;;;1.13;0.63;;;;;;;4.20;82.79;101984.28;5077085;28;20579;-72
2022/01/28 09:33:11;;;;;;;2.73;0.80;;;;;;;4.20;82.21;101971.56;5072893;28;20185;-73
2022/01/28 09:35:37;;;;;;;3.83;1.40;;;;;;;4.20;82.39;101976.16;5078243;28;20300;-72
2022/01/28 09:38:03;;;;;;;1.67;0.80;;;;;;;4.23;82.52;101981.09;5070179;28;20301;-72
2022/01/28 09:40:29;;;;;;;1.47;1.37;;;;;;;4.23;82.61;101987.34;5070198;28;20171;-74
2022/01/28 09:42:54;;;;;;;8.40;1.17;;;;;;;4.27;82.44;101995.81;5069047;28;20181;-73
2022/01/28 09:45:24;;;;;;;1.40;1.23;;;;;;;4.29;82.06;102001.81;5068670;28;20178;-72
2022/01/28 09:47:55;;;;;;;16.23;2.07;;;;;;;4.30;81.95;102016.97;5071454;28;20182;-73
2022/01/28 09:50:32;;;;;;;8.30;2.30;;;;;;;4.37;81.51;102013.13;5073829;28;20212;-73
2022/01/28 09:52:59;;;;;;;12.20;1.40;;;;;;;4.43;80.29;102020.31;5073705;28;20166;-72
2022/01/28 09:55:26;;;;;;;1.60;0.90;;;;;;;4.42;80.60;102028.66;5072277;28;20307;-73
2022/01/28 09:57:54;;;;;;;15.73;2.57;;;;;;;4.40;80.86;102034.31;5073500;28;20281;-72
2022/01/28 10:00:22;;;;;;;0.50;0.50;;;;;;;4.41;82.22;102029.72;5072557;28;20185;-72
2022/01/28 10:03:09;;;;;;;0.47;0.10;;;;;;;4.41;81.47;102043.25;5073683;28;20179;-74
2022/01/28 10:05:37;;;;;;;5.73;1.37;;;;;;;4.36;81.45;102059.38;5072106;28;20631;-73
2022/01/28 10:08:04;;;;;;;2.57;2.23;;;;;;;4.37;82.18;102033.97;5073462;28;20178;-73
2022/01/28 10:10:51;;;;;;;4.23;1.83;;;;;;;4.41;82.06;102054.06;5073597;28;20175;-73
2022/01/28 10:13:24;;;;;;;13.37;1.53;;;;;;;4.43;81.72;102060.09;5073569;28;20166;-73
2022/01/28 10:15:58;;;;;;;5.83;1.07;;;;;;;4.46;82.93;102055.03;5072819;28;20647;-75
2022/01/28 10:18:41;;;;;;;8.63;4.67;;;;;;;4.54;82.70;102051.19;5073080;28;20336;-73
2022/01/28 10:21:37;;;;;;;12.43;2.77;;;;;;;4.58;81.88;102046.94;5072380;28;20479;-73
2022/01/28 10:24:11;;;;;;;2.47;1.50;;;;;;;4.55;81.97;102044.72;5072860;28;20205;-73
2022/01/28 10:26:38;;;;;;;0.43;0.20;;;;;;;4.59;82.74;102051.28;5071363;28;20302;-73
2022/01/28 10:29:30;;;;;;;11.40;0.60;;;;;;;4.57;83.02;102055.28;5071508;28;20182;-73
2022/01/28 10:31:55;;;;;;;11.00;2.30;;;;;;;4.61;83.51;102042.94;5067544;28;20257;-73
2022/01/28 10:34:39;;;;;;;3.57;0.97;;;;;;;4.70;82.88;102045.09;5072805;28;20178;-73
2022/01/28 10:37:28;;;;;;;2.70;1.10;;;;;;;4.77;83.07;102058.50;5072703;28;20173;-73
2022/01/28 10:40:00;;;;;;;3.73;1.20;;;;;;;4.68;82.25;102040.97;5069115;28;20198;-74
2022/01/28 10:42:25;;;;;;;1.90;0.50;;;;;;;4.65;82.58;102036.84;5078906;28;20181;-74
2022/01/28 10:44:53;;;;;;;4.10;1.20;;;;;;;4.61;82.00;102034.81;5084546;28;20178;-74
2022/01/28 10:47:37;;;;;;;2.00;1.30;;;;;;;4.65;82.20;102046.84;5092726;28;20318;-74
2022/01/28 10:50:28;;;;;;;3.70;1.03;;;;;;;4.74;82.62;102035.44;5092610;28;20205;-73
2022/01/28 10:53:00;;;;;;;4.23;1.13;;;;;;;4.76;81.56;102037.91;5084214;28;20193;-73
2022/01/28 10:55:25;;;;;;;7.37;1.47;;;;;;;4.84;82.22;102034.03;5092488;28;20223;-72
2022/01/28 10:57:59;;;;;;;8.50;2.07;;;;;;;4.89;82.47;102031.44;5092398;28;20197;-73
2022/01/28 11:00:28;;;;;;;5.30;1.00;;;;;;;4.86;82.33;102023.81;5089977;28;20227;-74
2022/01/28 11:02:55;;;;;;;3.93;1.03;;;;;;;4.87;82.66;102025.44;5091023;28;20636;-73
2022/01/28 11:05:21;;;;;;;7.87;1.40;;;;;;;4.92;82.58;102036.38;5092318;28;20180;-73
2022/01/28 11:07:48;;;;;;;0.87;0.60;;;;;;;4.95;82.17;102034.06;5091191;28;20234;-73
2022/01/28 11:10:14;;;;;;;0.40;0.40;;;;;;;5.02;82.35;102045.59;5092224;28;20258;-73
2022/01/28 11:12:40;;;;;;;1.83;1.33;;;;;;;5.10;82.13;102036.31;5091038;28;20174;-73
2022/01/28 11:15:06;;;;;;;3.33;0.90;;;;;;;5.17;81.59;102041.59;5092098;28;20564;-73
2022/01/28 11:17:32;;;;;;;9.20;2.33;;;;;;;5.29;81.38;102039.69;5092123;28;20176;-73
2022/01/28 11:19:59;;;;;;;0.10;0.10;;;;;;;5.27;80.58;102039.13;5092314;28;20178;-73
2022/01/28 11:22:43;;;;;;;14.63;2.03;;;;;;;5.09;80.71;102040.06;5092034;28;20174;-73
2022/01/28 11:25:16;;;;;;;3.77;0.60;;;;;;;5.05;81.34;102041.59;5091888;28;20200;-73
2022/01/28 11:27:46;;;;;;;3.30;0.90;;;;;;;5.08;83.05;102049.25;5090854;28;20343;-73
2022/01/28 11:30:19;;;;;;;0.70;0.30;;;;;;;5.01;82.12;102049.34;5090625;28;20212;-73
2022/01/28 11:33:07;;;;;;;13.20;0.77;;;;;;;4.98;82.17;102049.84;5090711;28;20393;-73
2022/01/28 11:35:34;;;;;;;12.13;2.87;;;;;;;5.10;82.90;102043.59;5091411;28;20260;-73
2022/01/28 11:38:04;;;;;;;1.90;1.50;;;;;;;5.17;81.46;102053.25;5091860;28;20197;-73
2022/01/28 11:41:18;;;;;;;6.67;1.20;;;;;;;5.08;80.32;102055.50;5076377;28;20179;-74
2022/01/28 11:44:09;;;;;;;7.80;1.20;;;;;;;5.14;81.02;102059.16;5070713;28;20273;-74
2022/01/28 11:46:38;;;;;;;2.47;0.73;;;;;;;5.22;81.23;102064.22;5069929;28;20191;-74
2022/01/28 11:49:07;;;;;;;6.07;1.03;;;;;;;5.30;80.25;102063.03;5071318;28;20188;-74
2022/01/28 11:51:32;;;;;;;4.97;2.70;;;;;;;5.33;79.49;102081.50;5071280;28;20526;-73
2022/01/28 11:54:04;;;;;;;9.87;2.67;;;;;;;5.26;78.46;102073.53;5071212;28;20197;-73
2022/01/28 11:56:30;;;;;;;4.93;1.17;;;;;;;5.23;77.91;102082.13;5071117;28;20220;-72
2022/01/28 11:59:04;;;;;;;7.67;1.70;;;;;;;5.29;78.45;102083.06;5069862;28;20209;-73
2022/01/28 12:01:35;;;;;;;3.33;1.70;;;;;;;5.23;77.62;102082.13;5071323;28;20229;-74
2022/01/28 12:04:30;;;;;;;4.03;0.67;;;;;;;5.33;78.32;102101.31;5069811;28;20183;-73
2022/01/28 12:07:03;;;;;;;0.27;0.27;;;;;;;5.42;77.95;102095.56;5071314;28;20619;-74
2022/01/28 12:09:30;;;;;;;4.17;1.40;;;;;;;5.64;79.64;102096.56;5071176;28;20178;-74
2022/01/28 12:11:55;;;;;;;4.33;0.83;;;;;;;5.59;77.47;102101.91;5070924;28;20170;-74
2022/01/28 12:15:09;;;;;;;1.83;0.63;;;;;;;5.49;77.59;102105.19;5069827;28;20174;-75
2022/01/28 12:17:36;;;;;;;9.37;3.07;;;;;;;5.49;76.84;102117.94;5028482;28;20256;-74
2022/01/28 12:20:13;;;;;;;9.37;0.60;;;;;;;5.64;76.76;102126.41;5063388;28;20178;-74
2022/01/28 12:23:01;;;;;;;2.20;0.90;;;;;;;5.58;77.57;102119.22;5075505;28;20182;-73
2022/01/28 12:25:35;;;;;;;5.43;1.53;;;;;;;5.50;76.65;102109.59;5073828;28;20171;-74
2022/01/28 12:28:17;;;;;;;9.43;2.90;;;;;;;5.57;77.25;102117.59;5071733;28;20178;-73
2022/01/28 12:31:01;;;;;;;7.20;1.20;;;;;;;5.43;78.46;102108.03;5069721;28;20223;-74
2022/01/28 12:33:32;;;;;;;12.83;1.47;;;;;;;5.35;77.63;102114.63;5069874;28;20231;-73
2022/01/28 12:36:05;;;;;;;1.23;0.63;;;;;;;5.30;78.44;102119.94;5070673;28;20170;-79
2022/01/28 12:38:31;;;;;;;1.10;1.07;;;;;;;5.23;76.44;102100.28;5070719;28;20194;-74
2022/01/28 12:41:05;;;;;;;6.43;0.50;;;;;;;5.27;76.21;102096.03;5070965;28;20178;-74
2022/01/28 12:43:32;;;;;;;3.43;1.20;;;;;;;5.35;74.75;102111.91;5070530;28;20210;-74
2022/01/28 12:46:05;;;;;;;13.87;1.47;;;;;;;5.34;74.57;102108.38;5070496;28;20631;-73
2022/01/28 12:48:31;;;;;;;2.97;0.67;;;;;;;5.37;75.24;102112.53;5070710;28;20170;-74
2022/01/28 12:50:57;;;;;;;1.00;0.20;;;;;;;5.47;74.70;102120.06;5070390;28;20705;-74
2022/01/28 12:53:35;;;;;;;2.57;1.50;;;;;;;5.50;73.77;102101.44;5069246;28;20182;-74
2022/01/28 12:56:04;;;;;;;5.77;3.37;;;;;;;5.50;73.72;102092.50;5070035;28;20178;-74
2022/01/28 12:58:48;;;;;;;3.30;0.50;;;;;;;5.63;73.38;102116.63;5068840;28;20255;-74
2022/01/28 13:01:16;;;;;;;3.27;1.80;;;;;;;5.63;72.86;102184.41;5068913;28;20202;-74
2022/01/28 13:03:53;;;;;;;6.03;1.13;;;;;;;5.66;73.23;102148.72;5069974;28;20213;-73
2022/01/28 13:06:42;;;;;;;5.63;1.80;;;;;;;5.67;73.00;102094.25;5070337;28;20570;-73
2022/01/28 13:09:15;;;;;;;19.17;1.07;;;;;;;5.65;72.95;102119.94;5068501;28;20618;-73
2022/01/28 13:11:53;;;;;;;3.70;1.20;;;;;;;5.62;73.04;102114.97;5070571;28;20263;-73